Time;durP1;ratioP1;P1;durP2;ratioP2;P2;SDS_P1;SDS_P2;PMS_P1;PMS_P2;Temp;Humidity;BMP_temperature;BMP_pressure;BME280_temperature;BME280_humidity;BME280_pressure;Samples;Min_cycle;Max_cycle;Signal;HPM_P1;HPM_P2
2023/01/30 00:01:19;;;;;;;36.22;18.95;;;;;;;4.34;100.00;101816.47;5033861;28;20449;-63
2023/01/30 00:07:07;;;;;;;40.00;18.80;;;;;;;4.43;100.00;101777.69;5073550;22;20502;-63
2023/01/30 00:09:32;;;;;;;35.42;19.35;;;;;;;4.45;100.00;101779.59;5073521;28;20068;-64
2023/01/30 00:11:57;;;;;;;32.50;19.27;;;;;;;4.49;100.00;101794.59;5073546;28;20021;-64
2023/01/30 00:14:23;;;;;;;37.97;20.48;;;;;;;4.50;100.00;101787.66;5073191;28;20025;-63
2023/01/30 00:16:48;;;;;;;35.90;21.23;;;;;;;4.53;100.00;101800.88;5073445;28;20105;-63
2023/01/30 00:19:13;;;;;;;35.92;19.50;;;;;;;4.59;100.00;101777.66;5073426;28;20377;-63
2023/01/30 00:21:39;;;;;;;35.97;20.02;;;;;;;4.61;100.00;101760.28;5073447;28;20078;-63
2023/01/30 00:24:04;;;;;;;33.88;20.48;;;;;;;4.65;100.00;101791.03;5073170;28;20165;-63
2023/01/30 00:29:51;;;;;;;37.35;18.73;;;;;;;4.69;100.00;101769.41;5095452;22;20117;-77
2023/01/30 00:32:17;;;;;;;37.90;20.17;;;;;;;4.65;100.00;101767.47;5035143;28;20489;-76
2023/01/30 00:34:42;;;;;;;39.97;22.77;;;;;;;4.72;100.00;101772.19;5053413;28;20044;-75
2023/01/30 00:37:07;;;;;;;38.70;20.90;;;;;;;4.76;100.00;101768.91;5053161;28;20464;-75
2023/01/30 00:39:33;;;;;;;40.10;20.20;;;;;;;4.75;100.00;101755.72;5035925;28;20025;-74
2023/01/30 00:47:26;;;;;;;36.55;19.63;;;;;;;4.81;100.00;101752.53;5053378;28;20504;-75
2023/01/30 00:49:51;;;;;;;34.33;19.05;;;;;;;4.83;100.00;101751.75;5053727;28;20037;-75
2023/01/30 00:52:17;;;;;;;40.53;20.70;;;;;;;4.89;100.00;101757.31;5053011;28;20408;-75
2023/01/30 00:54:42;;;;;;;33.88;19.95;;;;;;;4.90;100.00;101763.44;5053515;28;20025;-75
2023/01/30 00:57:08;;;;;;;31.10;19.35;;;;;;;4.92;100.00;101752.19;5053222;28;20029;-75
2023/01/30 00:59:33;;;;;;;35.05;19.70;;;;;;;4.93;100.00;101755.75;5053137;28;20029;-75
2023/01/30 01:01:58;;;;;;;34.05;19.00;;;;;;;4.97;100.00;101752.44;5053093;28;20069;-75
2023/01/30 01:04:24;;;;;;;40.63;20.52;;;;;;;4.94;100.00;101737.47;5053229;28;20078;-75
2023/01/30 01:06:49;;;;;;;31.80;20.33;;;;;;;4.99;100.00;101740.31;5053410;28;20114;-75
2023/01/30 01:09:15;;;;;;;36.83;21.83;;;;;;;5.00;100.00;101747.34;5053140;28;20029;-75
2023/01/30 01:11:40;;;;;;;37.70;20.13;;;;;;;5.00;100.00;101737.75;5053136;28;20043;-75
2023/01/30 01:14:06;;;;;;;32.78;18.08;;;;;;;5.01;100.00;101733.41;5053816;28;20112;-75
2023/01/30 01:16:33;;;;;;;33.65;19.05;;;;;;;5.00;100.00;101723.75;5053042;28;20574;-75
2023/01/30 01:18:59;;;;;;;35.80;19.67;;;;;;;5.02;100.00;101724.75;5053062;28;20116;-75
2023/01/30 01:21:25;;;;;;;35.63;18.73;;;;;;;5.06;100.00;101723.19;5053052;28;20047;-75
2023/01/30 01:23:52;;;;;;;32.67;18.90;;;;;;;5.05;100.00;101724.88;5052902;28;20548;-75
2023/01/30 01:26:18;;;;;;;37.58;19.63;;;;;;;5.10;100.00;101725.13;5053189;28;20461;-75
2023/01/30 01:28:43;;;;;;;33.45;19.45;;;;;;;5.13;100.00;101720.88;5052948;28;20041;-75
2023/01/30 01:31:11;;;;;;;37.78;21.80;;;;;;;5.13;100.00;101717.38;5052743;28;20460;-75
2023/01/30 01:33:36;;;;;;;38.10;18.85;;;;;;;5.15;100.00;101716.63;5052906;28;20064;-75
2023/01/30 01:36:02;;;;;;;32.05;18.77;;;;;;;5.18;100.00;101694.91;5052781;28;20037;-76
2023/01/30 01:38:27;;;;;;;34.55;18.85;;;;;;;5.20;100.00;101715.13;5053099;28;20040;-75
2023/01/30 01:41:02;;;;;;;28.85;18.67;;;;;;;5.25;100.00;101716.22;5052830;28;20033;-75
2023/01/30 01:43:33;;;;;;;30.50;19.48;;;;;;;5.27;100.00;101708.47;5053435;28;20021;-75
2023/01/30 01:46:09;;;;;;;33.08;19.70;;;;;;;5.27;100.00;101697.97;5053335;28;20086;-75
2023/01/30 01:48:40;;;;;;;34.72;20.42;;;;;;;5.31;100.00;101685.88;5053324;28;20060;-78
2023/01/30 01:51:15;;;;;;;32.85;19.42;;;;;;;5.35;100.00;101679.94;5052911;28;20035;-75
2023/01/30 01:53:55;;;;;;;36.00;20.48;;;;;;;5.37;100.00;101670.44;5035481;28;20080;-75
2023/01/30 01:56:21;;;;;;;33.17;19.48;;;;;;;5.38;100.00;101673.13;5052963;28;20032;-75
2023/01/30 01:59:06;;;;;;;28.73;15.90;;;;;;;5.43;100.00;101671.59;5052683;28;20166;-75
2023/01/30 02:01:32;;;;;;;37.10;19.75;;;;;;;5.36;100.00;101652.94;5055736;28;20025;-75
2023/01/30 02:04:01;;;;;;;33.28;19.67;;;;;;;5.42;100.00;101663.69;5056143;28;20039;-75
2023/01/30 02:06:28;;;;;;;37.50;18.75;;;;;;;5.40;100.00;101662.75;5056179;28;20082;-76
2023/01/30 02:08:59;;;;;;;31.95;18.13;;;;;;;5.44;100.00;101667.28;5056143;28;20029;-76
2023/01/30 02:11:45;;;;;;;29.35;18.80;;;;;;;5.47;100.00;101668.28;5056213;28;20036;-76
2023/01/30 02:14:12;;;;;;;30.60;17.27;;;;;;;5.47;100.00;101662.16;5056083;28;20037;-76
2023/01/30 02:16:37;;;;;;;33.75;19.17;;;;;;;5.46;100.00;101660.38;5056002;28;20037;-76
2023/01/30 02:19:14;;;;;;;29.85;18.65;;;;;;;5.50;100.00;101654.44;5055688;28;20036;-76
2023/01/30 02:21:46;;;;;;;35.83;19.58;;;;;;;5.52;100.00;101643.22;5038040;28;20465;-76
2023/01/30 02:24:35;;;;;;;29.50;18.33;;;;;;;5.55;100.00;101645.03;5055831;28;20108;-76
2023/01/30 02:27:19;;;;;;;30.77;17.77;;;;;;;5.56;100.00;101654.69;5055862;28;20063;-76
2023/01/30 02:29:50;;;;;;;28.83;18.52;;;;;;;5.57;100.00;101634.63;5056077;28;20033;-76
2023/01/30 02:32:24;;;;;;;37.13;21.80;;;;;;;5.57;100.00;101624.13;5056326;28;20076;-76
2023/01/30 02:35:12;;;;;;;35.13;18.90;;;;;;;5.59;100.00;101628.63;5055952;28;20110;-76
2023/01/30 02:37:46;;;;;;;33.53;18.40;;;;;;;5.57;100.00;101616.25;5055836;28;20114;-77
2023/01/30 02:40:16;;;;;;;33.75;18.17;;;;;;;5.56;100.00;101618.00;5055562;28;20033;-77
2023/01/30 02:43:17;;;;;;;30.63;18.02;;;;;;;5.55;100.00;101612.69;5055649;28;20029;-77
2023/01/30 02:45:53;;;;;;;32.05;18.92;;;;;;;5.50;100.00;101617.75;5004911;28;20534;-76
2023/01/30 02:48:23;;;;;;;28.38;16.17;;;;;;;5.57;100.00;101627.69;5038375;28;20100;-76
2023/01/30 02:50:58;;;;;;;32.83;19.52;;;;;;;5.56;100.00;101625.84;5037972;28;20164;-76
2023/01/30 02:53:24;;;;;;;32.63;17.70;;;;;;;5.55;100.00;101605.72;5055814;28;20029;-76
2023/01/30 02:55:49;;;;;;;31.40;18.50;;;;;;;5.58;100.00;101620.72;5055300;28;20393;-76
2023/01/30 02:58:18;;;;;;;33.55;20.13;;;;;;;5.58;100.00;101623.31;5055149;28;20090;-76
2023/01/30 03:01:02;;;;;;;31.13;19.45;;;;;;;5.59;100.00;101623.38;5055120;28;20037;-76
2023/01/30 03:03:40;;;;;;;35.10;18.63;;;;;;;5.59;100.00;101609.38;5055621;28;20163;-76
2023/01/30 03:06:33;;;;;;;30.77;20.08;;;;;;;5.60;100.00;101601.56;5055218;28;20484;-77
2023/01/30 03:09:10;;;;;;;;;;;;;;;5.65;100.00;101607.00;5055847;28;20025;-77
2023/01/30 03:12:10;;;;;;;29.58;17.52;;;;;;;5.62;100.00;101597.31;5054337;28;19915;-77
2023/01/30 03:14:44;;;;;;;31.40;18.63;;;;;;;5.63;100.00;101598.19;5054909;28;20029;-77
2023/01/30 03:17:13;;;;;;;33.38;20.08;;;;;;;5.59;100.00;101593.66;5054650;28;20028;-77
2023/01/30 03:19:38;;;;;;;33.58;19.50;;;;;;;5.58;100.00;101589.25;5055376;28;20032;-78
2023/01/30 03:22:04;;;;;;;32.83;19.52;;;;;;;5.59;100.00;101599.78;5036864;28;20025;-81
2023/01/30 03:24:29;;;;;;;37.75;21.27;;;;;;;5.60;100.00;101592.81;5055015;28;20033;-78
2023/01/30 03:27:10;;;;;;;37.42;21.75;;;;;;;5.60;100.00;101595.44;5037141;28;20025;-78
2023/01/30 03:29:36;;;;;;;37.78;21.77;;;;;;;5.58;100.00;101586.63;5055476;28;20161;-79
2023/01/30 03:32:02;;;;;;;29.80;19.27;;;;;;;5.56;100.00;101589.16;5036452;28;20095;-78
2023/01/30 03:34:27;;;;;;;36.40;21.42;;;;;;;5.60;100.00;101592.81;5054261;28;20397;-78
2023/01/30 03:36:53;;;;;;;29.20;18.73;;;;;;;5.58;100.00;101576.13;5055038;28;20065;-78
2023/01/30 03:39:19;;;;;;;36.80;20.95;;;;;;;5.54;100.00;101564.63;5054187;28;20493;-79
2023/01/30 03:41:45;;;;;;;32.55;20.63;;;;;;;5.57;100.00;101572.63;5054160;28;20059;-79
2023/01/30 03:44:10;;;;;;;31.30;19.65;;;;;;;5.60;100.00;101571.84;5036948;28;20033;-80
2023/01/30 03:46:36;;;;;;;31.95;20.15;;;;;;;5.58;100.00;101558.69;5036779;28;20032;-80
2023/01/30 03:49:01;;;;;;;34.80;20.45;;;;;;;5.60;100.00;101571.84;5053946;28;20033;-79
2023/01/30 03:51:27;;;;;;;32.63;19.30;;;;;;;5.59;100.00;101568.31;5036697;28;20031;-80
2023/01/30 03:53:52;;;;;;;34.70;21.13;;;;;;;5.60;100.00;101574.47;5053892;28;20116;-79
2023/01/30 03:56:17;;;;;;;34.80;18.80;;;;;;;5.60;100.00;101566.59;5054042;28;20128;-80
2023/01/30 03:58:43;;;;;;;31.27;18.50;;;;;;;5.64;100.00;101574.66;5053887;28;20029;-80
2023/01/30 04:01:08;;;;;;;29.80;18.23;;;;;;;5.62;100.00;101571.09;5054102;28;20116;-80
2023/01/30 04:03:33;;;;;;;33.63;20.77;;;;;;;5.64;100.00;101573.75;5054382;28;20037;-80
2023/01/30 04:05:59;;;;;;;34.28;20.65;;;;;;;5.60;100.00;101569.22;5036280;28;20044;-80
2023/01/30 04:08:24;;;;;;;31.23;19.77;;;;;;;5.64;100.00;101571.13;5053933;28;20133;-81
2023/01/30 04:10:50;;;;;;;28.92;16.92;;;;;;;5.66;100.00;101583.50;5035696;28;20028;-80
2023/01/30 04:13:15;;;;;;;31.83;19.63;;;;;;;5.67;100.00;101587.00;5035956;28;20075;-81
2023/01/30 04:15:41;;;;;;;31.35;19.23;;;;;;;5.68;100.00;101579.19;5035569;28;20033;-81
2023/01/30 04:18:06;;;;;;;31.50;18.63;;;;;;;5.71;100.00;101586.31;5019365;28;20029;-81
2023/01/30 04:20:31;;;;;;;27.77;18.23;;;;;;;5.72;100.00;101582.84;5036116;28;20473;-80
2023/01/30 04:22:57;;;;;;;33.90;20.00;;;;;;;5.73;100.00;101576.75;5035986;28;20106;-80
2023/01/30 04:25:22;;;;;;;29.42;18.58;;;;;;;5.74;100.00;101568.97;5053930;28;20550;-80
2023/01/30 04:27:47;;;;;;;29.60;17.27;;;;;;;5.76;100.00;101563.78;5035755;28;20031;-80
2023/01/30 04:30:13;;;;;;;32.50;18.13;;;;;;;5.80;100.00;101564.81;5053171;28;20040;-80
2023/01/30 04:32:38;;;;;;;31.23;17.30;;;;;;;5.82;100.00;101564.03;5053299;28;20037;-79
2023/01/30 04:35:04;;;;;;;27.23;17.05;;;;;;;5.86;100.00;101550.22;5053726;28;20083;-80
2023/01/30 04:37:30;;;;;;;24.05;16.73;;;;;;;5.85;100.00;101558.03;5035647;28;20037;-80
2023/01/30 04:39:56;;;;;;;26.92;16.00;;;;;;;5.84;100.00;101532.66;5035710;28;20036;-80
2023/01/30 04:42:21;;;;;;;26.42;14.07;;;;;;;5.96;100.00;101538.44;5053370;28;20039;-80
2023/01/30 04:44:46;;;;;;;31.08;15.45;;;;;;;5.99;100.00;101551.66;5053048;28;20484;-80
2023/01/30 04:47:12;;;;;;;23.63;13.15;;;;;;;5.99;100.00;101549.91;5035567;28;20033;-78
2023/01/30 04:49:37;;;;;;;29.00;14.15;;;;;;;5.95;100.00;101545.41;5035562;28;20139;-82
2023/01/30 04:52:03;;;;;;;21.58;12.65;;;;;;;6.05;100.00;101561.53;5053594;28;20033;-79
2023/01/30 04:54:28;;;;;;;21.60;11.93;;;;;;;6.08;100.00;101559.91;5035607;28;20037;-79
2023/01/30 04:56:53;;;;;;;21.88;11.20;;;;;;;6.10;100.00;101562.59;5053321;28;20072;-78
2023/01/30 04:59:19;;;;;;;27.30;12.57;;;;;;;6.13;100.00;101553.13;5053235;28;20033;-80
2023/01/30 05:01:44;;;;;;;22.80;11.90;;;;;;;6.16;100.00;101558.47;5035375;28;20511;-80
2023/01/30 05:04:10;;;;;;;16.52;10.68;;;;;;;6.19;100.00;101561.22;5053149;28;20033;-79
2023/01/30 05:06:35;;;;;;;23.33;9.75;;;;;;;6.23;100.00;101563.13;5053670;28;20029;-80
2023/01/30 05:09:02;;;;;;;22.38;9.95;;;;;;;6.25;100.00;101557.94;5035374;28;20037;-79
2023/01/30 05:11:29;;;;;;;22.40;10.63;;;;;;;6.28;100.00;101563.31;5035230;28;20033;-79
2023/01/30 05:13:54;;;;;;;19.25;9.73;;;;;;;6.30;100.00;101571.28;5053660;28;20033;-79
2023/01/30 05:16:21;;;;;;;19.17;8.90;;;;;;;6.32;100.00;101574.84;5035538;28;20041;-79
2023/01/30 05:18:47;;;;;;;20.10;9.30;;;;;;;6.30;100.00;101572.16;5053310;28;20037;-80
2023/01/30 05:21:21;;;;;;;25.25;11.10;;;;;;;6.29;100.00;101559.84;5052783;28;20361;-78
2023/01/30 05:23:47;;;;;;;20.45;9.50;;;;;;;6.32;100.00;101553.84;5053022;28;20021;-78
2023/01/30 05:26:13;;;;;;;21.42;9.02;;;;;;;6.37;100.00;101571.56;5053218;28;20086;-79
2023/01/30 05:28:39;;;;;;;21.42;9.30;;;;;;;6.40;100.00;101570.78;5035285;28;20469;-78
2023/01/30 05:31:09;;;;;;;22.15;8.30;;;;;;;6.41;100.00;101567.31;5052872;28;20053;-79
2023/01/30 05:33:34;;;;;;;18.70;8.63;;;;;;;6.37;100.00;101561.03;5034948;28;20067;-80
2023/01/30 05:36:00;;;;;;;17.15;7.63;;;;;;;6.43;100.00;101557.78;5037588;28;20033;-78
2023/01/30 05:38:26;;;;;;;16.05;6.68;;;;;;;6.44;100.00;101549.97;5038573;28;20025;-78
2023/01/30 05:41:18;;;;;;;13.43;6.60;;;;;;;6.45;100.00;101556.09;5057207;28;20329;-78
2023/01/30 05:43:43;;;;;;;15.30;5.70;;;;;;;6.48;100.00;101553.59;5040743;28;20519;-78
2023/01/30 05:46:11;;;;;;;12.40;5.55;;;;;;;6.49;100.00;101551.03;5057227;28;20033;-78
2023/01/30 05:48:37;;;;;;;12.35;6.07;;;;;;;6.51;100.00;101559.88;5056345;28;20036;-78
2023/01/30 05:51:02;;;;;;;19.40;6.35;;;;;;;6.52;100.00;101558.13;5056525;28;20029;-78
2023/01/30 05:53:33;;;;;;;18.38;6.30;;;;;;;6.52;100.00;101555.50;5056460;28;20036;-78
2023/01/30 05:56:01;;;;;;;17.73;5.97;;;;;;;6.53;100.00;101558.19;5056480;28;20025;-78
2023/01/30 05:58:27;;;;;;;11.52;5.20;;;;;;;6.56;100.00;101562.69;5056435;28;20029;-78
2023/01/30 06:00:53;;;;;;;12.95;5.22;;;;;;;6.54;100.00;101556.47;5056587;28;20039;-78
2023/01/30 06:03:19;;;;;;;17.05;5.22;;;;;;;6.56;100.00;101574.91;5055957;28;20029;-79
2023/01/30 06:05:44;;;;;;;15.98;5.63;;;;;;;6.60;100.00;101577.72;5056310;28;20076;-78
2023/01/30 06:08:10;;;;;;;13.43;4.53;;;;;;;6.60;100.00;101574.19;5056276;28;20389;-78
2023/01/30 06:10:36;;;;;;;17.40;4.93;;;;;;;6.59;100.00;101567.13;5038510;28;20033;-81
2023/01/30 06:13:01;;;;;;;15.63;4.90;;;;;;;6.64;100.00;101577.00;5038834;28;20116;-77
2023/01/30 06:15:27;;;;;;;16.65;4.35;;;;;;;6.60;100.00;101563.69;5056378;28;20520;-77
2023/01/30 06:17:52;;;;;;;17.02;5.63;;;;;;;6.66;100.00;101579.66;5038079;28;20417;-77
2023/01/30 06:20:18;;;;;;;15.52;4.70;;;;;;;6.66;100.00;101596.31;5056513;28;20032;-77
2023/01/30 06:22:43;;;;;;;15.00;5.00;;;;;;;6.65;100.00;101589.28;5055873;28;20040;-78
2023/01/30 06:25:09;;;;;;;16.63;4.43;;;;;;;6.69;100.00;101598.19;5038460;28;20029;-78
2023/01/30 06:27:34;;;;;;;18.30;4.53;;;;;;;6.68;100.00;101601.63;5056798;28;20037;-77
2023/01/30 06:30:00;;;;;;;16.15;4.10;;;;;;;6.68;100.00;101609.50;5056546;28;20492;-77
2023/01/30 06:32:25;;;;;;;13.32;4.00;;;;;;;6.67;100.00;101615.59;5055846;28;20072;-78
2023/01/30 06:34:51;;;;;;;14.82;4.20;;;;;;;6.69;100.00;101632.31;5055979;28;20052;-78
2023/01/30 06:37:16;;;;;;;11.65;3.70;;;;;;;6.68;100.00;101623.56;5055654;28;20033;-78
2023/01/30 06:39:42;;;;;;;14.05;4.47;;;;;;;6.67;100.00;101627.00;5055975;28;20488;-78
2023/01/30 06:42:07;;;;;;;11.98;3.63;;;;;;;6.62;100.00;101628.53;5055827;28;20428;-78
2023/01/30 06:44:32;;;;;;;12.05;3.55;;;;;;;6.59;100.00;101630.16;5021281;28;20090;-78
2023/01/30 06:46:58;;;;;;;10.80;3.55;;;;;;;6.52;100.00;101613.28;5037817;28;20037;-78
2023/01/30 06:49:23;;;;;;;13.55;3.70;;;;;;;6.50;100.00;101630.69;5037564;28;20044;-78
2023/01/30 06:51:48;;;;;;;11.30;3.20;;;;;;;6.47;100.00;101626.22;5055429;28;20024;-77
2023/01/30 06:54:14;;;;;;;15.80;3.63;;;;;;;6.46;98.94;101631.41;5021456;28;20071;-78
2023/01/30 06:56:39;;;;;;;18.95;3.88;;;;;;;6.42;98.89;101616.34;5057033;28;20120;-78
2023/01/30 06:59:05;;;;;;;14.63;3.35;;;;;;;6.35;98.32;101604.72;5020949;28;20393;-80
2023/01/30 07:01:31;;;;;;;13.55;3.63;;;;;;;6.36;97.86;101610.88;5120142;22;20041;-63
2023/01/30 07:03:56;;;;;;;19.83;4.22;;;;;;;6.32;97.89;101607.22;5054670;28;20025;-63
2023/01/30 07:06:22;;;;;;;20.40;3.78;;;;;;;6.27;97.40;101611.41;5054749;28;20504;-63
2023/01/30 07:08:47;;;;;;;9.80;3.10;;;;;;;6.23;97.61;101612.09;5054619;28;20040;-63
2023/01/30 07:11:12;;;;;;;15.40;3.13;;;;;;;6.21;96.89;101611.13;5054825;28;20036;-64
2023/01/30 07:13:38;;;;;;;11.38;2.90;;;;;;;6.16;97.03;101624.06;5054494;28;20481;-64
2023/01/30 07:16:03;;;;;;;15.57;2.97;;;;;;;6.16;95.91;101625.78;5054768;28;20060;-64
2023/01/30 07:18:29;;;;;;;14.43;2.95;;;;;;;6.15;95.03;101651.16;5054532;28;20413;-64
2023/01/30 07:20:54;;;;;;;14.32;3.13;;;;;;;6.12;94.65;101651.00;5036401;28;20025;-63
2023/01/30 07:23:19;;;;;;;13.82;2.72;;;;;;;6.12;93.96;101639.63;5054234;28;20021;-64
2023/01/30 07:25:45;;;;;;;12.82;3.10;;;;;;;6.09;93.82;101650.91;5054397;28;20033;-64
2023/01/30 07:28:10;;;;;;;17.42;3.30;;;;;;;6.06;93.49;101648.16;5054160;28;20025;-64
2023/01/30 07:30:36;;;;;;;18.10;3.40;;;;;;;6.02;93.85;101652.38;5054139;28;20029;-63
2023/01/30 07:33:03;;;;;;;13.07;3.03;;;;;;;6.00;93.06;101651.41;5054047;28;20425;-64
2023/01/30 07:35:32;;;;;;;12.13;2.92;;;;;;;5.99;93.33;101659.19;5054094;28;20033;-64
2023/01/30 07:37:58;;;;;;;18.80;3.63;;;;;;;5.97;93.74;101653.00;5036075;28;20469;-64
2023/01/30 07:40:24;;;;;;;20.17;3.42;;;;;;;5.97;93.63;101667.03;5053924;28;20051;-63
2023/01/30 07:43:03;;;;;;;18.73;3.17;;;;;;;5.98;93.43;101675.78;5053720;28;20477;-64
2023/01/30 07:45:35;;;;;;;18.05;3.55;;;;;;;5.97;93.39;101674.88;5035892;28;20028;-63
2023/01/30 07:48:01;;;;;;;13.23;2.97;;;;;;;5.97;93.28;101663.50;5054072;28;20029;-63
2023/01/30 07:50:26;;;;;;;23.55;3.22;;;;;;;5.96;93.38;101664.34;5053655;28;20040;-63
2023/01/30 07:52:51;;;;;;;12.70;3.20;;;;;;;5.99;93.17;101667.97;5053930;28;20029;-64
2023/01/30 07:55:17;;;;;;;16.20;3.40;;;;;;;6.01;93.04;101665.44;5053554;28;20106;-63
2023/01/30 07:57:42;;;;;;;16.33;3.22;;;;;;;6.02;93.14;101667.22;5053107;28;20021;-65
2023/01/30 08:00:09;;;;;;;9.75;2.75;;;;;;;6.06;92.57;101676.13;5053517;28;20025;-63
2023/01/30 08:02:35;;;;;;;15.68;3.15;;;;;;;6.08;92.32;101670.13;5053265;28;20045;-63
2023/01/30 08:05:01;;;;;;;16.27;2.92;;;;;;;6.13;92.19;101668.56;5053847;28;20025;-63
2023/01/30 08:07:26;;;;;;;18.45;3.10;;;;;;;6.16;91.77;101667.78;5053579;28;20075;-63
2023/01/30 08:09:52;;;;;;;22.85;3.95;;;;;;;6.21;90.75;101671.50;5053452;28;20497;-63
2023/01/30 08:12:17;;;;;;;16.75;3.88;;;;;;;6.28;90.68;101668.28;5053427;28;20112;-63
2023/01/30 08:14:42;;;;;;;21.83;3.50;;;;;;;6.38;89.86;101681.00;5053442;28;20355;-63
2023/01/30 08:17:08;;;;;;;12.43;2.97;;;;;;;6.50;89.75;101677.94;5053348;28;20068;-63
2023/01/30 08:19:33;;;;;;;18.55;3.00;;;;;;;6.61;89.43;101678.38;5053328;28;20467;-63
2023/01/30 08:21:58;;;;;;;17.42;3.45;;;;;;;6.71;88.41;101681.44;5053210;28;20097;-63
2023/01/30 08:24:24;;;;;;;16.20;3.00;;;;;;;6.79;86.86;101694.88;5053155;28;20017;-63
2023/01/30 08:26:49;;;;;;;17.58;3.30;;;;;;;6.91;85.55;101692.72;5035339;28;20032;-64
2023/01/30 08:29:15;;;;;;;15.23;3.30;;;;;;;7.06;83.86;101691.53;5053146;28;20117;-63
2023/01/30 08:31:41;;;;;;;19.65;3.30;;;;;;;7.19;83.64;101694.69;5052910;28;20032;-63
2023/01/30 08:34:06;;;;;;;14.07;3.10;;;;;;;7.37;83.20;101697.13;5052959;28;20545;-63
2023/01/30 08:36:31;;;;;;;16.27;3.20;;;;;;;7.58;82.01;101702.28;5053049;28;20082;-64
2023/01/30 08:38:57;;;;;;;20.52;3.72;;;;;;;7.76;80.57;101699.41;5052908;28;20183;-64
2023/01/30 08:41:22;;;;;;;15.88;3.70;;;;;;;7.95;79.67;101695.69;5052886;28;20043;-64
2023/01/30 08:43:47;;;;;;;19.27;3.90;;;;;;;8.11;78.64;101698.03;5052786;28;20051;-64
2023/01/30 08:46:13;;;;;;;18.17;3.15;;;;;;;8.33;78.96;101696.13;5052983;28;20039;-64
2023/01/30 08:48:40;;;;;;;16.73;3.40;;;;;;;8.53;76.56;101700.34;5053114;28;20108;-64
2023/01/30 08:51:06;;;;;;;15.50;3.00;;;;;;;8.87;75.02;101696.16;5053136;28;20087;-64
2023/01/30 08:53:32;;;;;;;14.75;3.13;;;;;;;9.12;73.36;101703.06;5052922;28;20521;-65
2023/01/30 08:55:57;;;;;;;16.65;3.13;;;;;;;9.33;72.70;101701.06;5052743;28;20033;-65
2023/01/30 08:58:23;;;;;;;19.08;3.67;;;;;;;9.64;73.02;101697.59;5052881;28;20370;-64
2023/01/30 09:00:49;;;;;;;17.25;3.15;;;;;;;9.90;70.22;101711.50;5034754;28;20025;-64
2023/01/30 09:03:15;;;;;;;14.30;3.03;;;;;;;10.13;70.16;101714.75;5052493;28;20049;-64
2023/01/30 09:05:41;;;;;;;17.15;3.25;;;;;;;10.31;69.72;101724.94;5052826;28;20048;-64
2023/01/30 09:08:06;;;;;;;17.60;3.03;;;;;;;10.39;68.21;101730.41;5034933;28;20477;-63
2023/01/30 09:10:32;;;;;;;16.00;3.65;;;;;;;10.33;67.57;101723.22;5054227;28;20116;-64
2023/01/30 09:12:57;;;;;;;14.85;3.05;;;;;;;10.49;68.32;101722.78;5056743;28;20049;-64
2023/01/30 09:15:23;;;;;;;18.98;3.35;;;;;;;10.62;66.46;101731.91;5056771;28;20028;-64
2023/01/30 09:17:50;;;;;;;19.67;3.85;;;;;;;10.88;67.23;101736.94;5056701;28;20503;-64
2023/01/30 09:20:17;;;;;;;15.75;3.50;;;;;;;11.21;63.96;101736.78;5056375;28;20429;-64
2023/01/30 09:22:42;;;;;;;18.27;3.38;;;;;;;11.66;66.36;101738.66;5056672;28;20033;-64
2023/01/30 09:25:08;;;;;;;16.83;3.00;;;;;;;11.85;62.15;101747.88;5056566;28;20029;-64
2023/01/30 09:27:34;;;;;;;17.40;2.95;;;;;;;11.86;62.06;101739.06;5056216;28;20056;-65
2023/01/30 09:29:59;;;;;;;11.88;3.10;;;;;;;11.85;62.16;101738.19;5055997;28;20036;-65
2023/01/30 09:32:24;;;;;;;18.58;3.75;;;;;;;11.87;61.91;101739.13;5056385;28;20154;-65
2023/01/30 09:34:50;;;;;;;14.02;3.22;;;;;;;12.07;61.16;101731.53;5056481;28;20029;-65
2023/01/30 09:37:15;;;;;;;14.50;3.20;;;;;;;12.19;59.71;101742.38;5056431;28;20374;-65
2023/01/30 09:39:41;;;;;;;16.55;3.50;;;;;;;12.48;60.50;101744.66;5056334;28;20497;-64
2023/01/30 09:42:30;;;;;;;14.40;3.22;;;;;;;12.64;61.16;101761.72;5056388;28;20091;-65
2023/01/30 09:45:17;;;;;;;12.38;3.20;;;;;;;12.77;58.76;101758.41;5056376;28;20128;-64
2023/01/30 09:47:57;;;;;;;16.38;3.13;;;;;;;12.77;58.81;101748.69;5056200;28;20430;-66
2023/01/30 09:50:56;;;;;;;14.90;3.72;;;;;;;12.47;60.26;101764.09;5056145;28;20082;-64
2023/01/30 09:53:30;;;;;;;16.02;3.83;;;;;;;11.81;59.43;101749.53;5056028;28;20025;-63
2023/01/30 09:56:00;;;;;;;15.70;3.58;;;;;;;11.54;62.92;101755.16;5055979;28;20462;-64
2023/01/30 09:58:40;;;;;;;20.45;3.85;;;;;;;11.29;62.91;101765.19;5056184;28;20078;-64
2023/01/30 10:01:12;;;;;;;15.10;3.38;;;;;;;11.04;62.01;101771.69;5055541;28;20025;-64
2023/01/30 10:03:48;;;;;;;18.52;3.30;;;;;;;10.75;63.52;101776.28;5037978;28;20052;-64
2023/01/30 10:06:15;;;;;;;21.15;3.58;;;;;;;10.60;63.61;101781.16;5056163;28;20036;-64
2023/01/30 10:08:49;;;;;;;15.05;3.35;;;;;;;10.43;64.37;101772.81;5055793;28;20454;-64
2023/01/30 10:11:30;;;;;;;16.45;3.25;;;;;;;10.27;64.37;101760.03;5055765;28;20032;-64
2023/01/30 10:14:30;;;;;;;17.00;3.10;;;;;;;10.06;66.58;101775.28;5055758;28;20025;-64
2023/01/30 10:17:20;;;;;;;16.42;3.42;;;;;;;9.94;66.52;101783.75;5023802;28;20086;-63
2023/01/30 10:19:54;;;;;;;15.27;3.40;;;;;;;9.79;66.02;101786.84;5055732;28;20025;-63
2023/01/30 10:22:30;;;;;;;15.57;3.63;;;;;;;9.66;67.19;101775.03;5036991;28;20032;-64
2023/01/30 10:25:15;;;;;;;16.55;3.47;;;;;;;9.48;68.14;101785.06;5037639;28;20059;-63
2023/01/30 10:27:50;;;;;;;16.00;3.20;;;;;;;9.44;68.69;101791.09;5055399;28;20470;-64
2023/01/30 10:30:16;;;;;;;16.83;3.45;;;;;;;9.25;67.46;101792.28;5055327;28;20063;-64
2023/01/30 10:32:54;;;;;;;15.75;3.22;;;;;;;9.18;67.75;101780.63;5079632;22;20068;-82
2023/01/30 10:35:28;;;;;;;18.08;3.58;;;;;;;9.15;68.37;101801.59;5055516;28;20036;-84
2023/01/30 10:38:52;;;;;;;16.65;3.10;;;;;;;9.12;68.68;101793.63;5037798;28;20029;-82
2023/01/30 10:41:33;;;;;;;14.18;3.33;;;;;;;8.97;67.85;101795.75;4938312;29;20050;-83
2023/01/30 10:43:58;;;;;;;16.27;3.30;;;;;;;8.90;69.27;101802.56;4954845;29;20063;-83
2023/01/30 10:46:32;;;;;;;14.07;3.60;;;;;;;8.88;69.79;101821.81;5025141;28;20071;-82
2023/01/30 10:49:01;;;;;;;17.35;3.58;;;;;;;8.86;69.75;101823.47;5055065;28;20025;-81
2023/01/30 10:51:26;;;;;;;17.90;4.28;;;;;;;8.80;68.92;101818.03;5037374;28;20107;-83
2023/01/30 10:53:59;;;;;;;11.45;2.95;;;;;;;8.79;68.05;101819.78;5054978;28;20358;-84
2023/01/30 10:56:37;;;;;;;16.33;3.05;;;;;;;8.76;68.86;101809.13;5037210;28;20128;-82
2023/01/30 10:59:39;;;;;;;17.50;3.40;;;;;;;8.78;68.24;101817.97;5054903;28;20063;-81
2023/01/30 11:02:24;;;;;;;17.17;3.13;;;;;;;8.77;68.04;101810.91;5036970;28;20366;-82
2023/01/30 11:04:57;;;;;;;14.77;2.80;;;;;;;8.81;68.18;101819.81;5036974;28;20037;-81
2023/01/30 11:07:22;;;;;;;15.00;2.70;;;;;;;8.67;67.47;101785.09;5036826;28;20445;-83
2023/01/30 11:09:48;;;;;;;13.60;2.80;;;;;;;8.76;67.30;101822.28;5054676;28;20046;-81
2023/01/30 11:12:14;;;;;;;14.40;3.25;;;;;;;8.77;67.11;101816.16;5054382;28;20453;-82
2023/01/30 11:14:57;;;;;;;17.40;3.03;;;;;;;8.52;67.04;101778.47;5036762;28;20041;-82
2023/01/30 11:17:28;;;;;;;;;;;;;;;8.74;67.99;101824.88;5055084;28;20029;-81
2023/01/30 11:19:56;;;;;;;13.18;2.83;;;;;;;8.69;66.68;101813.31;5054533;28;19919;-81
2023/01/30 11:22:25;;;;;;;21.75;3.70;;;;;;;8.68;67.89;101802.69;5037222;28;20354;-82
2023/01/30 11:25:01;;;;;;;15.25;2.95;;;;;;;8.84;67.17;101814.66;5054327;28;20021;-82
2023/01/30 11:27:31;;;;;;;15.77;3.55;;;;;;;8.86;66.94;101818.22;5054448;28;20537;-80
2023/01/30 11:30:02;;;;;;;19.02;5.07;;;;;;;8.92;67.06;101811.41;5054284;28;20037;-81
2023/01/30 11:32:28;;;;;;;17.85;3.22;;;;;;;8.95;66.62;101808.91;5053099;28;20099;-81
2023/01/30 11:35:02;;;;;;;12.43;2.97;;;;;;;8.88;66.21;101811.28;5054009;28;20028;-81
2023/01/30 11:37:33;;;;;;;16.02;3.20;;;;;;;8.91;66.35;101820.19;5054156;28;20149;-84